Time;durP1;ratioP1;P1;durP2;ratioP2;P2;SDS_P1;SDS_P2;PMS_P1;PMS_P2;Temp;Humidity;BMP_temperature;BMP_pressure;BME280_temperature;BME280_humidity;BME280_pressure;Samples;Min_cycle;Max_cycle;Signal;HPM_P1;HPM_P2
2022/09/08 00:00:32;;;;;;;;;;;;;;;15.39;54.87;100302.43;1639901;86;20224;-74
2022/09/08 00:03:01;;;;;;;;;;;;;;;15.34;54.92;100294.97;1668567;86;20180;-74
2022/09/08 00:05:27;;;;;;;;;;;;;;;15.30;55.01;100291.57;1669812;85;20180;-74
2022/09/08 00:07:53;;;;;;;;;;;;;;;15.27;55.08;100284.72;1679393;85;20257;-73
2022/09/08 00:10:19;;;;;;;;;;;;;;;15.25;55.18;100281.42;1680614;85;20152;-73
2022/09/08 00:12:48;;;;;;;;;;;;;;;15.24;55.24;100275.73;1680783;85;20183;-73
2022/09/08 00:15:13;;;;;;;;;;;;;;;15.23;55.30;100275.44;1645389;85;21106;-73
2022/09/08 00:17:39;;;;;;;;;;;;;;;15.23;55.40;100272.75;1663076;86;20199;-73
2022/09/08 00:20:06;;;;;;;;;;;;;;;15.20;55.46;100275.81;1670772;86;20747;-73
2022/09/08 00:22:32;;;;;;;;;;;;;;;15.17;55.52;100276.73;1670876;86;20160;-73
2022/09/08 00:24:58;;;;;;;;;;;;;;;15.12;55.60;100278.70;1662662;85;20801;-73
2022/09/08 00:27:24;;;;;;;;;;;;;;;15.11;55.66;100278.89;1679478;84;21866;-73
2022/09/08 00:29:50;;;;;;;;;;;;;;;15.08;55.74;100277.45;1670330;84;20627;-73
2022/09/08 00:32:15;;;;;;;;;;;;;;;15.06;55.81;100276.00;1670727;86;20199;-73
2022/09/08 00:34:41;;;;;;;;;;;;;;;15.04;55.86;100278.88;1669929;85;20163;-73
2022/09/08 00:37:07;;;;;;;;;;;;;;;15.04;55.94;100288.28;1670850;86;20183;-73
2022/09/08 00:39:33;;;;;;;;;;;;;;;15.00;56.00;100292.39;1670646;85;21138;-73
2022/09/08 00:41:59;;;;;;;;;;;;;;;14.97;56.11;100290.95;1674211;84;20903;-73
2022/09/08 00:44:34;;;;;;;;;;;;;;;14.94;56.18;100289.17;1671909;84;20294;-73
2022/09/08 00:47:00;;;;;;;;;;;;;;;14.89;56.24;100288.94;1666805;85;20181;-73
2022/09/08 00:49:26;;;;;;;;;;;;;;;14.85;56.33;100286.33;1670770;85;20177;-73
2022/09/08 00:51:53;;;;;;;;;;;;;;;14.80;56.40;100290.98;1670374;85;21157;-73
2022/09/08 00:54:19;;;;;;;;;;;;;;;14.77;56.49;100299.95;1671089;86;20157;-73
2022/09/08 00:56:46;;;;;;;;;;;;;;;14.73;56.55;100295.49;1670811;86;20230;-73
2022/09/08 00:59:12;;;;;;;;;;;;;;;14.71;56.63;100289.98;1671346;85;20183;-74
2022/09/08 01:01:41;;;;;;;;;;;;;;;14.70;56.67;100291.03;1671829;85;20495;-73
2022/09/08 01:04:07;;;;;;;;;;;;;;;14.67;56.77;100292.78;1675570;85;21130;-73
2022/09/08 01:15:03;;;;;;;;;;;;;;;14.55;57.07;100273.72;1674635;85;20179;-74
2022/09/08 01:17:30;;;;;;;;;;;;;;;14.52;57.19;100269.26;1675315;84;21085;-74
2022/09/08 01:19:56;;;;;;;;;;;;;;;14.49;57.29;100267.27;1675758;85;20172;-73
2022/09/08 01:22:45;;;;;;;;;;;;;;;14.46;57.40;100264.98;1675506;85;20156;-73
2022/09/08 01:25:22;;;;;;;;;;;;;;;14.45;57.46;100274.08;1676146;84;20227;-73
2022/09/08 01:27:48;;;;;;;;;;;;;;;14.40;57.58;100272.49;1676171;85;36959;-73
2022/09/08 01:30:14;;;;;;;;;;;;;;;14.41;57.65;100270.13;1678464;84;21214;-73
2022/09/08 01:32:41;;;;;;;;;;;;;;;14.39;57.75;100270.02;1675462;84;20444;-73
2022/09/08 01:35:07;;;;;;;;;;;;;;;14.38;57.80;100274.56;1675900;85;20163;-73
2022/09/08 01:37:33;;;;;;;;;;;;;;;14.37;57.88;100270.21;1668185;85;20171;-73
2022/09/08 01:39:59;;;;;;;;;;;;;;;14.36;57.95;100263.17;1675657;85;20167;-73
2022/09/08 01:42:25;;;;;;;;;;;;;;;14.34;58.00;100254.52;1676338;85;21083;-73
2022/09/08 01:44:51;;;;;;;;;;;;;;;14.34;58.06;100255.85;1675941;85;20187;-73
2022/09/08 01:47:17;;;;;;;;;;;;;;;14.31;58.14;100254.05;1676051;84;20810;-73
2022/09/08 01:49:43;;;;;;;;;;;;;;;14.33;58.21;100252.81;1676624;84;20217;-73
2022/09/08 01:52:08;;;;;;;;;;;;;;;14.33;58.27;100243.42;1675536;85;20262;-73
2022/09/08 01:54:34;;;;;;;;;;;;;;;14.34;58.38;100245.13;1675973;85;21130;-73
2022/09/08 01:57:00;;;;;;;;;;;;;;;14.35;58.44;100237.91;1676130;85;20195;-73
2022/09/08 01:59:27;;;;;;;;;;;;;;;14.35;58.52;100232.03;1671532;85;20156;-73
2022/09/08 02:01:53;;;;;;;;;;;;;;;14.36;58.55;100232.33;1658533;86;20517;-73
2022/09/08 02:04:19;;;;;;;;;;;;;;;14.36;58.61;100233.66;1663041;85;20169;-73
2022/09/08 02:06:45;;;;;;;;;;;;;;;14.37;58.68;100233.98;1663211;86;21156;-73
2022/09/08 02:09:12;;;;;;;;;;;;;;;14.37;58.74;100233.98;1653539;86;20236;-73
2022/09/08 02:11:38;;;;;;;;;;;;;;;14.38;58.78;100228.95;1663059;86;20164;-73
2022/09/08 02:14:04;;;;;;;;;;;;;;;14.38;58.85;100238.34;1663652;85;20181;-73
2022/09/08 02:16:30;;;;;;;;;;;;;;;14.38;58.89;100234.82;1663560;86;20201;-73
2022/09/08 02:18:56;;;;;;;;;;;;;;;14.40;58.92;100231.41;1663998;86;21820;-74
2022/09/08 02:21:24;;;;;;;;;;;;;;;14.41;59.00;100231.23;1663425;86;20187;-73
2022/09/08 02:23:50;;;;;;;;;;;;;;;14.41;59.07;100233.91;1664126;86;20516;-73
2022/09/08 02:26:28;;;;;;;;;;;;;;;14.42;59.11;100231.55;1663464;86;20183;-73
2022/09/08 02:28:54;;;;;;;;;;;;;;;14.42;59.17;100230.72;1653057;86;20198;-73
2022/09/08 02:31:23;;;;;;;;;;;;;;;14.41;59.24;100223.18;1663132;86;21024;-73
2022/09/08 02:33:49;;;;;;;;;;;;;;;14.41;59.32;100219.16;1663511;86;20180;-73
2022/09/08 02:36:15;;;;;;;;;;;;;;;14.42;59.38;100211.94;1664340;86;20210;-73
2022/09/08 02:38:41;;;;;;;;;;;;;;;14.46;59.48;100216.69;1656309;86;20172;-73
2022/09/08 02:41:07;;;;;;;;;;;;;;;14.46;59.53;100215.34;1663613;85;21124;-73
2022/09/08 02:43:33;;;;;;;;;;;;;;;14.45;59.59;100212.37;1664271;85;21714;-74
2022/09/08 02:46:04;;;;;;;;;;;;;;;14.47;59.64;100212.16;1655293;86;20444;-73
2022/09/08 02:48:30;;;;;;;;;;;;;;;14.45;59.67;100212.37;1663819;86;20509;-73
2022/09/08 02:51:00;;;;;;;;;;;;;;;14.45;59.73;100215.05;1661633;85;20442;-74
2022/09/08 02:53:27;;;;;;;;;;;;;;;14.45;59.78;100217.73;1662877;85;20216;-73
2022/09/08 02:55:54;;;;;;;;;;;;;;;14.45;59.81;100213.70;1658877;86;21057;-74
2022/09/08 02:58:19;;;;;;;;;;;;;;;14.44;59.83;100212.55;1664723;86;20189;-73
2022/09/08 03:00:45;;;;;;;;;;;;;;;14.43;59.88;100209.04;1662936;85;20774;-73
2022/09/08 03:03:12;;;;;;;;;;;;;;;14.43;59.93;100206.36;1664122;86;20238;-73
2022/09/08 03:05:37;;;;;;;;;;;;;;;14.45;60.00;100204.31;1663539;86;20148;-73
2022/09/08 03:08:03;;;;;;;;;;;;;;;14.47;60.04;100203.59;1664181;86;21121;-73
2022/09/08 03:10:30;;;;;;;;;;;;;;;14.49;60.10;100194.81;1657460;86;20164;-73
2022/09/08 03:12:56;;;;;;;;;;;;;;;14.50;60.17;100191.11;1663042;85;20192;-73
2022/09/08 03:15:23;;;;;;;;;;;;;;;14.54;60.25;100198.76;1664046;86;20179;-74
2022/09/08 03:17:49;;;;;;;;;;;;;;;14.54;60.31;100202.78;1664533;86;20173;-73
2022/09/08 03:20:15;;;;;;;;;;;;;;;14.53;60.34;100207.31;1664070;86;21104;-73
2022/09/08 03:22:41;;;;;;;;;;;;;;;14.54;60.41;100204.13;1662703;85;20161;-73
2022/09/08 03:25:08;;;;;;;;;;;;;;;14.53;60.48;100203.84;1663108;85;20156;-73
2022/09/08 03:27:34;;;;;;;;;;;;;;;14.53;60.54;100201.95;1664357;86;20181;-74
2022/09/08 03:30:00;;;;;;;;;;;;;;;14.52;60.55;100203.52;1663411;86;20183;-73
2022/09/08 03:32:26;;;;;;;;;;;;;;;14.53;60.60;100206.52;1664613;86;21127;-73
2022/09/08 03:34:51;;;;;;;;;;;;;;;14.52;60.64;100198.14;1664374;86;20187;-73
2022/09/08 03:37:17;;;;;;;;;;;;;;;14.50;60.68;100191.11;1664454;86;20230;-74
2022/09/08 03:39:44;;;;;;;;;;;;;;;14.48;60.71;100181.11;1664055;86;20250;-73
2022/09/08 03:42:10;;;;;;;;;;;;;;;14.47;60.78;100179.44;1664015;86;20169;-73
2022/09/08 03:44:36;;;;;;;;;;;;;;;14.45;60.80;100178.83;1646543;86;21017;-73
2022/09/08 03:47:02;;;;;;;;;;;;;;;14.44;60.84;100173.14;1664307;86;20266;-74
2022/09/08 03:49:28;;;;;;;;;;;;;;;14.45;60.86;100183.36;1664468;86;20199;-73
2022/09/08 03:51:53;;;;;;;;;;;;;;;14.42;60.93;100181.91;1663125;85;20188;-73
2022/09/08 03:57:03;;;;;;;;;;;;;;;14.37;61.01;100178.98;1664224;86;21035;-73
2022/09/08 03:59:29;;;;;;;;;;;;;;;14.35;61.09;100184.25;1666005;85;20254;-73
2022/09/08 04:01:56;;;;;;;;;;;;;;;14.34;61.12;100175.37;1675848;84;20464;-73
2022/09/08 04:04:22;;;;;;;;;;;;;;;14.31;61.18;100169.03;1675994;85;20634;-73
2022/09/08 04:06:49;;;;;;;;;;;;;;;14.27;61.27;100177.16;1675314;85;20177;-74
2022/09/08 04:09:16;;;;;;;;;;;;;;;14.24;61.37;100183.44;1669763;85;21040;-74
2022/09/08 04:11:41;;;;;;;;;;;;;;;14.22;61.53;100182.28;1675816;85;20156;-74
2022/09/08 04:14:08;;;;;;;;;;;;;;;14.22;61.65;100175.58;1676501;85;20277;-74
2022/09/08 04:16:34;;;;;;;;;;;;;;;14.21;61.80;100172.60;1675942;85;20168;-74
2022/09/08 04:18:59;;;;;;;;;;;;;;;14.21;61.96;100171.77;1675692;85;20233;-73
2022/09/08 04:21:25;;;;;;;;;;;;;;;14.21;62.08;100177.97;1676710;85;21188;-73
2022/09/08 04:23:51;;;;;;;;;;;;;;;14.18;62.19;100174.31;1676139;85;20160;-73
2022/09/08 04:26:17;;;;;;;;;;;;;;;14.19;62.29;100177.32;1676744;85;20186;-74
2022/09/08 04:28:43;;;;;;;;;;;;;;;14.18;62.37;100178.34;1676013;84;20751;-73
2022/09/08 04:31:13;;;;;;;;;;;;;;;14.14;62.45;100175.77;1673386;85;20174;-73
2022/09/08 04:33:40;;;;;;;;;;;;;;;14.12;62.56;100184.50;1651378;85;21190;-74
2022/09/08 04:36:11;;;;;;;;;;;;;;;14.11;62.67;100192.22;1675946;84;20184;-73
2022/09/08 04:38:38;;;;;;;;;;;;;;;14.12;62.75;100195.23;1676511;85;20199;-73
2022/09/08 04:41:05;;;;;;;;;;;;;;;14.15;62.83;100193.48;1675278;85;20176;-73
2022/09/08 04:43:34;;;;;;;;;;;;;;;14.16;62.89;100191.12;1676599;85;20215;-73
2022/09/08 04:46:02;;;;;;;;;;;;;;;14.17;62.98;100188.77;1676383;85;21171;-73
2022/09/08 04:48:30;;;;;;;;;;;;;;;14.20;63.07;100185.69;1676041;85;20211;-73
2022/09/08 04:50:56;;;;;;;;;;;;;;;14.23;63.13;100197.36;1675986;85;20168;-73
2022/09/08 04:53:22;;;;;;;;;;;;;;;14.28;63.21;100198.95;1675541;85;20812;-74
2022/09/08 04:55:48;;;;;;;;;;;;;;;14.32;63.23;100202.05;1676477;85;20455;-73
2022/09/08 04:58:14;;;;;;;;;;;;;;;14.37;63.26;100205.81;1675855;85;21016;-74
2022/09/08 05:00:40;;;;;;;;;;;;;;;14.37;63.26;100200.96;1668624;85;20196;-74
2022/09/08 05:03:06;;;;;;;;;;;;;;;14.34;63.33;100195.48;1666070;86;20215;-74
2022/09/08 05:05:37;;;;;;;;;;;;;;;14.34;63.39;100190.13;1661589;85;20183;-73
2022/09/08 05:08:03;;;;;;;;;;;;;;;14.35;63.43;100187.77;1663911;85;20460;-74
2022/09/08 05:10:31;;;;;;;;;;;;;;;14.36;63.45;100185.88;1664542;86;21133;-74
2022/09/08 05:12:57;;;;;;;;;;;;;;;14.38;63.48;100182.00;1666985;85;20183;-74
2022/09/08 05:15:23;;;;;;;;;;;;;;;14.40;63.53;100187.14;1665145;86;20258;-74
2022/09/08 05:17:48;;;;;;;;;;;;;;;14.41;63.55;100184.78;1666972;86;20171;-74
2022/09/08 05:20:14;;;;;;;;;;;;;;;14.54;63.63;100196.08;1666438;86;20258;-73
2022/09/08 05:22:40;;;;;;;;;;;;;;;14.59;63.58;100199.83;1666879;84;22141;-73
2022/09/08 05:25:08;;;;;;;;;;;;;;;14.61;63.55;100192.91;1665380;85;20190;-74
2022/09/08 05:27:33;;;;;;;;;;;;;;;14.59;63.56;100178.87;1666510;86;20162;-74
2022/09/08 05:29:59;;;;;;;;;;;;;;;14.57;63.58;100171.52;1665756;86;20170;-74
2022/09/08 05:32:25;;;;;;;;;;;;;;;14.57;63.62;100173.69;1666391;86;20160;-73
2022/09/08 05:34:51;;;;;;;;;;;;;;;14.65;63.64;100176.72;1666359;86;21149;-74
2022/09/08 05:37:17;;;;;;;;;;;;;;;14.74;63.65;100172.30;1664475;85;20182;-73
2022/09/08 05:39:43;;;;;;;;;;;;;;;14.86;63.66;100177.91;1666663;85;20234;-74
2022/09/08 05:42:09;;;;;;;;;;;;;;;15.09;63.62;100174.36;1666620;86;20166;-74
2022/09/08 05:44:35;;;;;;;;;;;;;;;15.45;63.60;100168.57;1666114;86;20755;-74
2022/09/08 05:47:00;;;;;;;;;;;;;;;15.63;63.54;100170.66;1667116;85;20715;-74
2022/09/08 05:49:26;;;;;;;;;;;;;;;15.91;63.46;100167.21;1666080;86;20178;-74
2022/09/08 05:51:52;;;;;;;;;;;;;;;16.14;63.28;100170.28;1666253;85;20223;-74
2022/09/08 05:54:19;;;;;;;;;;;;;;;16.44;63.14;100166.02;1666757;86;20169;-70
2022/09/08 05:56:45;;;;;;;;;;;;;;;16.77;62.93;100166.41;1666985;86;20169;-74
2022/09/08 05:59:11;;;;;;;;;;;;;;;17.05;62.71;100166.86;1666422;85;22018;-74
2022/09/08 06:01:37;;;;;;;;;;;;;;;17.39;62.49;100170.95;1668435;84;20273;-74
2022/09/08 06:04:03;;;;;;;;;;;;;;;17.54;62.14;100165.23;1670670;84;20196;-75
2022/09/08 06:06:30;;;;;;;;;;;;;;;17.78;61.96;100167.95;1670626;84;20731;-75
2022/09/08 06:08:59;;;;;;;;;;;;;;;17.86;61.62;100162.80;1670409;85;20212;-75
2022/09/08 06:11:24;;;;;;;;;;;;;;;17.75;61.37;100160.30;1670098;85;21250;-74
2022/09/08 06:13:50;;;;;;;;;;;;;;;17.60;61.17;100161.68;1670806;86;20182;-75
2022/09/08 06:16:17;;;;;;;;;;;;;;;17.47;61.01;100159.91;1670489;85;20157;-74
2022/09/08 06:18:43;;;;;;;;;;;;;;;17.34;60.87;100158.16;1669507;85;20229;-74
2022/09/08 06:21:17;;;;;;;;;;;;;;;17.47;60.77;100166.13;1671155;85;20152;-74
2022/09/08 06:23:43;;;;;;;;;;;;;;;17.63;60.55;100155.84;1671548;86;21165;-74
2022/09/08 06:26:26;;;;;;;;;;;;;;;17.79;60.30;100153.94;1671571;86;20184;-74
2022/09/08 06:29:16;;;;;;;;;;;;;;;17.77;60.10;100158.72;1670624;84;20192;-74
2022/09/08 06:31:46;;;;;;;;;;;;;;;17.75;59.92;100154.08;1670159;85;20160;-74
2022/09/08 06:34:14;;;;;;;;;;;;;;;17.56;59.69;100150.51;1670056;85;20177;-74
2022/09/08 06:36:44;;;;;;;;;;;;;;;17.42;59.61;100140.34;1670666;85;21101;-74
2022/09/08 06:39:16;;;;;;;;;;;;;;;17.42;59.58;100135.47;1667795;84;20164;-74
2022/09/08 06:41:46;;;;;;;;;;;;;;;17.44;59.51;100128.83;1669898;86;20167;-74
2022/09/08 06:44:20;;;;;;;;;;;;;;;17.48;59.39;100126.00;1671079;85;20168;-74
2022/09/08 06:46:46;;;;;;;;;;;;;;;17.55;59.27;100109.75;1671301;85;20164;-74
2022/09/08 06:49:13;;;;;;;;;;;;;;;17.52;59.10;100118.29;1671200;85;20871;-75
2022/09/08 06:52:05;;;;;;;;;;;;;;;17.53;59.00;100116.39;1663899;85;20478;-74
2022/09/08 06:54:37;;;;;;;;;;;;;;;17.49;58.89;100124.09;1669305;86;20159;-74
2022/09/08 06:57:25;;;;;;;;;;;;;;;17.46;58.76;100125.37;1664475;84;20692;-74
2022/09/08 06:59:58;;;;;;;;;;;;;;;17.53;58.74;100123.13;1670884;86;20635;-74
2022/09/08 07:03:00;;;;;;;;;;;;;;;17.56;58.72;100129.45;1675022;85;21157;-74
2022/09/08 07:05:45;;;;;;;;;;;;;;;17.57;58.66;100126.55;1675145;85;20468;-74
2022/09/08 07:08:26;;;;;;;;;;;;;;;17.53;58.63;100129.88;1673445;85;20183;-74
2022/09/08 07:11:14;;;;;;;;;;;;;;;17.55;58.61;100134.54;1671299;85;20568;-74
2022/09/08 07:13:49;;;;;;;;;;;;;;;17.59;58.58;100141.17;1674814;85;20146;-74
2022/09/08 07:16:19;;;;;;;;;;;;;;;17.66;58.57;100139.24;1675353;85;21237;-70
2022/09/08 07:18:51;;;;;;;;;;;;;;;17.65;58.53;100142.98;1676263;84;21903;-70
2022/09/08 07:21:29;;;;;;;;;;;;;;;17.69;58.53;100144.19;1674038;85;20147;-71
2022/09/08 07:23:57;;;;;;;;;;;;;;;17.76;58.46;100131.46;1675791;85;20156;-70
2022/09/08 07:26:35;;;;;;;;;;;;;;;17.76;58.43;100122.02;1675905;85;20160;-70
2022/09/08 07:29:10;;;;;;;;;;;;;;;17.76;58.45;100124.20;1672690;84;20788;-70
2022/09/08 07:31:40;;;;;;;;;;;;;;;17.75;58.47;100117.66;1672358;85;20148;-70
2022/09/08 07:34:10;;;;;;;;;;;;;;;17.83;58.49;100120.08;1649789;85;20187;-70
2022/09/08 07:36:42;;;;;;;;;;;;;;;17.88;58.50;100116.16;1675951;85;20238;-70
2022/09/08 07:39:31;;;;;;;;;;;;;;;17.88;58.49;100118.87;1676194;85;20160;-70
2022/09/08 07:42:02;;;;;;;;;;;;;;;17.90;58.48;100124.87;1674226;85;21188;-70
2022/09/08 07:44:27;;;;;;;;;;;;;;;17.86;58.47;100119.11;1706048;82;20149;-69
2022/09/08 07:47:16;;;;;;;;;;;;;;;17.99;58.53;100119.47;1708216;82;20175;-69
2022/09/08 07:49:46;;;;;;;;;;;;;;;18.22;58.51;100118.28;1661053;84;20183;-69
2022/09/08 07:52:36;;;;;;;;;;;;;;;18.47;58.39;100121.67;1692862;84;20222;-69
2022/09/08 07:55:14;;;;;;;;;;;;;;;18.64;58.26;100125.97;1676506;84;21194;-70
2022/09/08 07:57:50;;;;;;;;;;;;;;;18.89;58.13;100131.23;1691905;83;20206;-69
2022/09/08 08:00:19;;;;;;;;;;;;;;;18.97;57.98;100125.47;1691638;84;20175;-70
2022/09/08 08:02:58;;;;;;;;;;;;;;;19.17;57.93;100129.23;1661935;84;20159;-70
2022/09/08 08:05:33;;;;;;;;;;;;;;;19.24;57.59;100129.43;1649557;85;20166;-70
2022/09/08 08:08:08;;;;;;;;;;;;;;;19.42;57.48;100125.28;1652733;85;21117;-70
2022/09/08 08:10:51;;;;;;;;;;;;;;;19.43;57.27;100128.29;1655038;85;20178;-70
2022/09/08 08:13:48;;;;;;;;;;;;;;;19.40;57.14;100134.14;1656628;84;20173;-70
2022/09/08 08:16:15;;;;;;;;;;;;;;;19.24;57.00;100138.06;1670124;84;20528;-70
2022/09/08 08:18:50;;;;;;;;;;;;;;;19.13;56.96;100126.17;1669009;84;20475;-70
2022/09/08 08:21:24;;;;;;;;;;;;;;;19.07;56.89;100133.03;1673343;85;21031;-70
2022/09/08 08:24:18;;;;;;;;;;;;;;;19.12;56.92;100135.85;1674667;84;20276;-73
2022/09/08 08:26:53;;;;;;;;;;;;;;;19.22;56.92;100134.23;1636745;84;20220;-73
2022/09/08 08:29:23;;;;;;;;;;;;;;;19.29;56.79;100130.89;1672011;85;20156;-73
2022/09/08 08:31:57;;;;;;;;;;;;;;;19.47;56.77;100130.52;1669422;85;20536;-73
2022/09/08 08:34:26;;;;;;;;;;;;;;;19.53;56.57;100132.31;1669218;84;21138;-73
2022/09/08 08:36:52;;;;;;;;;;;;;;;19.72;56.60;100124.36;1671513;85;20487;-74
2022/09/08 08:39:19;;;;;;;;;;;;;;;20.04;56.51;100121.56;1666286;84;20872;-73
2022/09/08 08:41:55;;;;;;;;;;;;;;;20.18;56.24;100110.75;1646185;85;20582;-74
2022/09/08 08:44:41;;;;;;;;;;;;;;;20.27;56.06;100105.27;1665420;84;20166;-74
2022/09/08 08:47:19;;;;;;;;;;;;;;;20.47;55.94;100094.56;1661164;85;21118;-73
2022/09/08 08:50:04;;;;;;;;;;;;;;;20.63;55.69;100093.25;1673011;85;20199;-73
2022/09/08 08:52:50;;;;;;;;;;;;;;;20.94;55.69;100087.83;1673666;85;20227;-74
2022/09/08 08:55:29;;;;;;;;;;;;;;;21.22;55.44;100085.08;1666940;85;20472;-74
2022/09/08 08:58:15;;;;;;;;;;;;;;;21.27;55.15;100090.59;1660023;85;20192;-74
2022/09/08 09:01:00;;;;;;;;;;;;;;;21.37;54.94;100084.50;1673689;85;21180;-75
2022/09/08 09:03:58;;;;;;;;;;;;;;;21.52;54.80;100078.48;1603186;84;20239;-74
2022/09/08 09:06:33;;;;;;;;;;;;;;;21.62;54.54;100075.91;1670135;85;20270;-74
2022/09/08 09:09:12;;;;;;;;;;;;;;;21.67;54.36;100069.21;1668339;85;20176;-74
2022/09/08 09:12:00;;;;;;;;;;;;;;;21.65;54.18;100060.48;1674249;84;20194;-74
2022/09/08 09:14:57;;;;;;;;;;;;;;;21.62;54.12;100062.34;1667955;85;21214;-74
2022/09/08 09:17:27;;;;;;;;;;;;;;;21.59;54.07;100060.13;1575518;89;20199;-74
2022/09/08 09:19:59;;;;;;;;;;;;;;;21.52;53.96;100055.42;1651205;85;20204;-74
2022/09/08 09:22:43;;;;;;;;;;;;;;;21.53;53.96;100048.93;1671732;85;20188;-74
2022/09/08 09:25:25;;;;;;;;;;;;;;;21.59;53.87;100056.06;1673993;85;20175;-74
2022/09/08 09:28:19;;;;;;;;;;;;;;;21.72;53.89;100058.41;1656365;85;22010;-74
2022/09/08 09:31:11;;;;;;;;;;;;;;;21.68;53.69;100057.26;1674510;85;20200;-74
2022/09/08 09:33:41;;;;;;;;;;;;;;;21.68;53.73;100062.69;1674301;84;20231;-74
2022/09/08 09:36:42;;;;;;;;;;;;;;;21.72;53.61;100063.84;1673962;84;20148;-74
2022/09/08 09:39:21;;;;;;;;;;;;;;;21.79;53.54;100061.76;1674800;85;20192;-74
2022/09/08 09:42:12;;;;;;;;;;;;;;;21.82;53.37;100054.47;1654350;84;21349;-74
2022/09/08 09:44:45;;;;;;;;;;;;;;;21.84;53.29;100053.16;1674273;85;20148;-74
2022/09/08 09:47:36;;;;;;;;;;;;;;;22.06;53.30;100049.09;1674820;85;20228;-74
2022/09/08 09:50:38;;;;;;;;;;;;;;;22.15;53.12;100053.03;1656588;85;20590;-74
2022/09/08 09:53:11;;;;;;;;;;;;;;;22.28;52.97;100049.91;1674687;85;20452;-74
2022/09/08 09:55:47;;;;;;;;;;;;;;;22.37;52.85;100040.78;1674072;84;21448;-74
2022/09/08 09:58:22;;;;;;;;;;;;;;;22.41;52.78;100048.14;1674391;84;20168;-74
2022/09/08 10:01:04;;;;;;;;;;;;;;;22.47;52.62;100037.34;1674292;85;20148;-74
2022/09/08 10:03:55;;;;;;;;;;;;;;;22.56;52.58;100046.66;1655053;85;20251;-74
2022/09/08 10:06:35;;;;;;;;;;;;;;;22.62;52.51;100052.45;1674825;85;20172;-74
2022/09/08 10:09:20;;;;;;;;;;;;;;;22.63;52.42;100052.70;1664888;85;21257;-74
2022/09/08 10:12:05;;;;;;;;;;;;;;;22.77;52.41;100040.37;1668001;85;20168;-74
2022/09/08 10:14:46;;;;;;;;;;;;;;;22.97;52.33;100033.77;1674838;84;20284;-74
2022/09/08 10:17:25;;;;;;;;;;;;;;;23.07;52.18;100039.28;1673991;85;20357;-74
2022/09/08 10:20:15;;;;;;;;;;;;;;;23.10;52.06;100037.39;1674815;85;20157;-74
2022/09/08 10:23:01;;;;;;;;;;;;;;;23.25;52.08;100036.16;1657845;85;22195;-74
2022/09/08 10:25:52;;;;;;;;;;;;;;;23.42;51.91;100039.27;1674369;85;20164;-74
2022/09/08 10:28:28;;;;;;;;;;;;;;;23.38;51.70;100037.05;1674859;85;20163;-74
2022/09/08 10:31:20;;;;;;;;;;;;;;;23.51;51.67;100032.23;1674135;85;20567;-74
2022/09/08 10:34:09;;;;;;;;;;;;;;;23.47;51.42;100027.07;1674392;85;20179;-74
2022/09/08 10:36:54;;;;;;;;;;;;;;;23.52;51.40;100029.80;1674756;85;21668;-73
2022/09/08 10:39:41;;;;;;;;;;;;;;;23.53;51.28;100027.37;1673284;85;20171;-74
2022/09/08 10:42:28;;;;;;;;;;;;;;;23.54;51.33;100016.20;1627969;85;20187;-74
2022/09/08 10:45:24;;;;;;;;;;;;;;;23.58;51.31;100013.23;1658696;84;20537;-74
2022/09/08 10:48:08;;;;;;;;;;;;;;;23.60;51.30;100012.44;1653715;85;20167;-74
2022/09/08 10:50:35;;;;;;;;;;;;;;;23.64;51.23;100001.84;1674201;84;21600;-74
2022/09/08 10:53:21;;;;;;;;;;;;;;;23.72;51.24;99997.23;1674158;85;20171;-74
2022/09/08 10:56:08;;;;;;;;;;;;;;;23.87;51.24;99996.76;1674706;85;20195;-74
2022/09/08 10:58:50;;;;;;;;;;;;;;;23.97;51.09;99995.97;1659517;85;21359;-75
2022/09/08 11:01:41;;;;;;;;;;;;;;;24.15;51.06;99988.70;1674602;85;20160;-74
2022/09/08 11:04:37;;;;;;;;;;;;;;;24.39;51.02;99979.47;1674434;85;22589;-74
2022/09/08 11:07:22;;;;;;;;;;;;;;;24.54;50.92;99982.22;1659297;85;20156;-74
2022/09/08 11:10:20;;;;;;;;;;;;;;;24.66;50.83;99975.15;1655558;85;20173;-74
2022/09/08 11:13:06;;;;;;;;;;;;;;;24.83;50.70;99978.45;1660639;84;20510;-74
2022/09/08 11:15:51;;;;;;;;;;;;;;;25.18;50.61;99974.31;1674705;85;20119;-74
2022/09/08 11:18:40;;;;;;;;;;;;;;;25.28;50.15;99974.28;1673991;85;22008;-74
2022/09/08 11:21:12;;;;;;;;;;;;;;;25.24;49.98;99971.84;1659234;85;20716;-74
2022/09/08 11:23:41;;;;;;;;;;;;;;;25.32;49.84;99972.64;1674118;85;20424;-74
2022/09/08 11:26:17;;;;;;;;;;;;;;;25.32;49.68;99966.36;1674375;85;21339;-74
2022/09/08 11:28:59;;;;;;;;;;;;;;;25.27;49.55;99963.09;1674607;85;20428;-74
2022/09/08 11:31:46;;;;;;;;;;;;;;;25.23;49.36;99966.09;1674515;85;21840;-74
2022/09/08 11:34:21;;;;;;;;;;;;;;;25.14;49.35;99959.58;1674562;85;20362;-74
2022/09/08 11:37:17;;;;;;;;;;;;;;;25.19;49.32;99966.38;1674729;84;20163;-74
2022/09/08 11:40:12;;;;;;;;;;;;;;;25.14;49.15;99959.58;1657791;85;20622;-74
2022/09/08 11:43:10;;;;;;;;;;;;;;;25.18;49.14;99944.83;1674726;85;20196;-74
2022/09/08 11:45:58;;;;;;;;;;;;;;;25.17;49.01;99944.55;1674643;85;22299;-74
2022/09/08 11:48:50;;;;;;;;;;;;;;;25.06;48.86;99942.39;1573490;90;20679;-74
2022/09/08 11:51:23;;;;;;;;;;;;;;;24.90;48.79;99940.80;1680689;85;20167;-74
2022/09/08 11:54:04;;;;;;;;;;;;;;;24.81;48.81;99936.94;1679439;84;20671;-75
2022/09/08 11:56:47;;;;;;;;;;;;;;;24.71;48.83;99930.95;1680793;84;20155;-75
2022/09/08 11:59:31;;;;;;;;;;;;;;;24.61;48.88;99930.14;1682017;85;22359;-74
2022/09/08 12:02:16;;;;;;;;;;;;;;;24.56;48.96;99920.61;1684345;84;20153;-74
2022/09/08 12:05:17;;;;;;;;;;;;;;;24.56;49.01;99916.52;1703179;83;20377;-74
2022/09/08 12:07:50;;;;;;;;;;;;;;;24.61;49.10;99908.32;1703430;84;20810;-74
2022/09/08 12:10:37;;;;;;;;;;;;;;;24.71;49.17;99901.48;1703678;84;20458;-74
2022/09/08 12:13:24;;;;;;;;;;;;;;;24.79;49.13;99899.58;1703399;83;21859;-75
2022/09/08 12:16:03;;;;;;;;;;;;;;;24.80;49.01;99882.95;1685429;84;20465;-75
2022/09/08 12:18:41;;;;;;;;;;;;;;;24.91;48.94;99881.02;1703353;84;20360;-75
2022/09/08 12:21:14;;;;;;;;;;;;;;;25.17;48.91;99879.86;1703490;83;20782;-75
2022/09/08 12:23:49;;;;;;;;;;;;;;;25.48;48.69;99873.72;1703286;83;20132;-75
2022/09/08 12:26:42;;;;;;;;;;;;;;;25.72;48.46;99864.37;1691355;84;21900;-75
2022/09/08 12:29:20;;;;;;;;;;;;;;;25.83;48.15;99863.17;1690351;83;20149;-75
2022/09/08 12:32:06;;;;;;;;;;;;;;;25.77;47.87;99859.67;1679006;84;20123;-75
2022/09/08 12:34:51;;;;;;;;;;;;;;;25.76;47.80;99858.58;1677788;84;20578;-75
2022/09/08 12:37:29;;;;;;;;;;;;;;;25.69;47.62;99848.51;1678877;83;20172;-75
2022/09/08 12:40:11;;;;;;;;;;;;;;;25.51;47.45;99836.90;1688473;83;21840;-75
2022/09/08 12:43:07;;;;;;;;;;;;;;;25.35;47.43;99841.03;1699275;83;20160;-75
2022/09/08 12:45:39;;;;;;;;;;;;;;;25.24;47.48;99835.89;1675458;84;20439;-75
2022/09/08 12:48:21;;;;;;;;;;;;;;;25.14;47.46;99833.20;1684470;84;21284;-74
2022/09/08 12:51:00;;;;;;;;;;;;;;;25.06;47.58;99835.14;1679958;85;20175;-74
2022/09/08 12:53:44;;;;;;;;;;;;;;;25.00;47.69;99832.98;1678179;85;21872;-75
2022/09/08 12:56:29;;;;;;;;;;;;;;;24.99;47.78;99818.25;1679760;84;20210;-75
2022/09/08 12:59:05;;;;;;;;;;;;;;;24.98;47.83;99818.79;1670595;85;20450;-75
2022/09/08 13:01:38;;;;;;;;;;;;;;;25.01;47.93;99812.80;1676813;84;21127;-74
2022/09/08 13:04:22;;;;;;;;;;;;;;;25.07;48.03;99814.95;1670980;84;20168;-75
2022/09/08 13:06:52;;;;;;;;;;;;;;;25.08;48.09;99811.95;1671310;84;22819;-75
2022/09/08 13:09:23;;;;;;;;;;;;;;;25.10;48.17;99804.30;1670857;84;21094;-75
2022/09/08 13:12:15;;;;;;;;;;;;;;;25.07;48.21;99819.05;1674401;85;20218;-75
2022/09/08 13:14:54;;;;;;;;;;;;;;;25.04;48.36;99824.52;1672199;85;20661;-75
2022/09/08 13:17:39;;;;;;;;;;;;;;;25.03;48.51;99829.70;1692195;84;20132;-75
2022/09/08 13:20:28;;;;;;;;;;;;;;;25.00;48.63;99830.26;1666630;84;21833;-75
2022/09/08 13:23:07;;;;;;;;;;;;;;;24.96;48.76;99828.36;1672398;85;20206;-75